sensor_id;sensor_type;location;lat;lon;timestamp;pressure;altitude;pressure_sealevel;temperature
74485;BMP280;62942;52.462;10.846;2023-05-15T00:00:28;100490;;;
74485;BMP280;62942;52.462;10.846;2023-05-15T00:01:28;100490;;;
74485;BMP280;62942;52.462;10.846;2023-05-15T00:02:38;100490;;;
74485;BMP280;62942;52.462;10.846;2023-05-15T00:03:38;100490;;;
74485;BMP280;62942;52.462;10.846;2023-05-15T00:04:48;100480;;;
74485;BMP280;62942;52.462;10.846;2023-05-15T00:05:58;100480;;;
74485;BMP280;62942;52.462;10.846;2023-05-15T00:06:58;100490;;;
74485;BMP280;62942;52.462;10.846;2023-05-15T00:08:08;100490;;;
74485;BMP280;62942;52.462;10.846;2023-05-15T00:09:18;100480;;;
74485;BMP280;62942;52.462;10.846;2023-05-15T00:10:28;100480;;;
74485;BMP280;62942;52.462;10.846;2023-05-15T00:11:28;100480;;;
74485;BMP280;62942;52.462;10.846;2023-05-15T00:12:38;100480;;;
74485;BMP280;62942;52.462;10.846;2023-05-15T00:13:48;100480;;;
74485;BMP280;62942;52.462;10.846;2023-05-15T00:14:58;100480;;;
74485;BMP280;62942;52.462;10.846;2023-05-15T00:15:58;100470;;;
74485;BMP280;62942;52.462;10.846;2023-05-15T00:17:08;100470;;;
74485;BMP280;62942;52.462;10.846;2023-05-15T00:18:18;100470;;;
74485;BMP280;62942;52.462;10.846;2023-05-15T00:19:18;100470;;;
74485;BMP280;62942;52.462;10.846;2023-05-15T00:20:29;100470;;;
74485;BMP280;62942;52.462;10.846;2023-05-15T00:21:38;100470;;;
74485;BMP280;62942;52.462;10.846;2023-05-15T00:22:38;100480;;;
74485;BMP280;62942;52.462;10.846;2023-05-15T00:23:48;100480;;;
74485;BMP280;62942;52.462;10.846;2023-05-15T00:24:58;100480;;;
74485;BMP280;62942;52.462;10.846;2023-05-15T00:25:58;100470;;;
74485;BMP280;62942;52.462;10.846;2023-05-15T00:27:08;100470;;;
74485;BMP280;62942;52.462;10.846;2023-05-15T00:28:18;100470;;;
74485;BMP280;62942;52.462;10.846;2023-05-15T00:29:28;100470;;;
74485;BMP280;62942;52.462;10.846;2023-05-15T00:30:38;100470;;;
74485;BMP280;62942;52.462;10.846;2023-05-15T00:31:38;100470;;;
74485;BMP280;62942;52.462;10.846;2023-05-15T00:32:48;100470;;;
74485;BMP280;62942;52.462;10.846;2023-05-15T00:33:58;100470;;;
74485;BMP280;62942;52.462;10.846;2023-05-15T00:35:08;100460;;;
74485;BMP280;62942;52.462;10.846;2023-05-15T00:36:08;100460;;;
74485;BMP280;62942;52.462;10.846;2023-05-15T00:37:18;100460;;;
74485;BMP280;62942;52.462;10.846;2023-05-15T00:38:18;100470;;;
74485;BMP280;62942;52.462;10.846;2023-05-15T00:39:28;100460;;;
74485;BMP280;62942;52.462;10.846;2023-05-15T00:40:28;100460;;;
74485;BMP280;62942;52.462;10.846;2023-05-15T00:41:29;100460;;;
74485;BMP280;62942;52.462;10.846;2023-05-15T00:42:38;100460;;;
74485;BMP280;62942;52.462;10.846;2023-05-15T00:43:39;100450;;;
74485;BMP280;62942;52.462;10.846;2023-05-15T00:44:39;100450;;;
74485;BMP280;62942;52.462;10.846;2023-05-15T00:45:48;100450;;;
74485;BMP280;62942;52.462;10.846;2023-05-15T00:46:58;100450;;;
74485;BMP280;62942;52.462;10.846;2023-05-15T00:48:08;100440;;;
74485;BMP280;62942;52.462;10.846;2023-05-15T00:49:08;100450;;;
74485;BMP280;62942;52.462;10.846;2023-05-15T00:50:18;100450;;;
74485;BMP280;62942;52.462;10.846;2023-05-15T00:51:18;100450;;;
74485;BMP280;62942;52.462;10.846;2023-05-15T00:52:28;100450;;;
74485;BMP280;62942;52.462;10.846;2023-05-15T00:53:28;100450;;;
74485;BMP280;62942;52.462;10.846;2023-05-15T00:54:38;100450;;;
74485;BMP280;62942;52.462;10.846;2023-05-15T00:55:48;100440;;;
74485;BMP280;62942;52.462;10.846;2023-05-15T00:56:48;100440;;;
74485;BMP280;62942;52.462;10.846;2023-05-15T00:57:58;100450;;;
74485;BMP280;62942;52.462;10.846;2023-05-15T00:59:08;100440;;;
74485;BMP280;62942;52.462;10.846;2023-05-15T01:00:09;100450;;;
74485;BMP280;62942;52.462;10.846;2023-05-15T01:01:18;100440;;;
74485;BMP280;62942;52.462;10.846;2023-05-15T01:02:18;100440;;;
74485;BMP280;62942;52.462;10.846;2023-05-15T01:03:18;100440;;;
74485;BMP280;62942;52.462;10.846;2023-05-15T01:04:28;100440;;;
74485;BMP280;62942;52.462;10.846;2023-05-15T01:05:38;100440;;;
74485;BMP280;62942;52.462;10.846;2023-05-15T01:06:38;100440;;;
74485;BMP280;62942;52.462;10.846;2023-05-15T01:07:51;100430;;;
74485;BMP280;62942;52.462;10.846;2023-05-15T01:08:59;100430;;;
74485;BMP280;62942;52.462;10.846;2023-05-15T01:10:09;100430;;;
74485;BMP280;62942;52.462;10.846;2023-05-15T01:11:09;100430;;;
74485;BMP280;62942;52.462;10.846;2023-05-15T01:12:18;100430;;;
74485;BMP280;62942;52.462;10.846;2023-05-15T01:13:19;100430;;;
74485;BMP280;62942;52.462;10.846;2023-05-15T01:14:28;100430;;;
74485;BMP280;62942;52.462;10.846;2023-05-15T01:15:38;100430;;;
74485;BMP280;62942;52.462;10.846;2023-05-15T01:16:38;100430;;;
74485;BMP280;62942;52.462;10.846;2023-05-15T01:17:48;100430;;;
74485;BMP280;62942;52.462;10.846;2023-05-15T01:18:58;100430;;;
74485;BMP280;62942;52.462;10.846;2023-05-15T01:19:58;100430;;;
74485;BMP280;62942;52.462;10.846;2023-05-15T01:21:21;100430;;;
74485;BMP280;62942;52.462;10.846;2023-05-15T01:22:28;100430;;;
74485;BMP280;62942;52.462;10.846;2023-05-15T01:23:31;100430;;;
74485;BMP280;62942;52.462;10.846;2023-05-15T01:24:33;100420;;;
74485;BMP280;62942;52.462;10.846;2023-05-15T01:26:00;100430;;;
74485;BMP280;62942;52.462;10.846;2023-05-15T01:26:46;100430;;;
74485;BMP280;62942;52.462;10.846;2023-05-15T01:27:49;100430;;;
74485;BMP280;62942;52.462;10.846;2023-05-15T01:29:00;100430;;;
74485;BMP280;62942;52.462;10.846;2023-05-15T01:30:09;100430;;;
74485;BMP280;62942;52.462;10.846;2023-05-15T01:31:18;100430;;;
74485;BMP280;62942;52.462;10.846;2023-05-15T01:32:19;100430;;;
74485;BMP280;62942;52.462;10.846;2023-05-15T01:33:19;100430;;;
74485;BMP280;62942;52.462;10.846;2023-05-15T01:34:30;100430;;;
74485;BMP280;62942;52.462;10.846;2023-05-15T01:35:30;100430;;;
74485;BMP280;62942;52.462;10.846;2023-05-15T01:36:41;100430;;;
74485;BMP280;62942;52.462;10.846;2023-05-15T01:37:49;100430;;;
74485;BMP280;62942;52.462;10.846;2023-05-15T01:38:49;100430;;;
74485;BMP280;62942;52.462;10.846;2023-05-15T01:39:48;100430;;;
74485;BMP280;62942;52.462;10.846;2023-05-15T01:40:49;100430;;;
74485;BMP280;62942;52.462;10.846;2023-05-15T01:41:50;100430;;;
74485;BMP280;62942;52.462;10.846;2023-05-15T01:43:00;100430;;;
74485;BMP280;62942;52.462;10.846;2023-05-15T01:43:59;100430;;;
74485;BMP280;62942;52.462;10.846;2023-05-15T01:45:10;100430;;;
74485;BMP280;62942;52.462;10.846;2023-05-15T01:46:08;100430;;;
74485;BMP280;62942;52.462;10.846;2023-05-15T01:47:19;100420;;;
74485;BMP280;62942;52.462;10.846;2023-05-15T01:48:28;100420;;;
74485;BMP280;62942;52.462;10.846;2023-05-15T01:49:28;100430;;;
74485;BMP280;62942;52.462;10.846;2023-05-15T01:50:28;100410;;;
74485;BMP280;62942;52.462;10.846;2023-05-15T01:51:29;100420;;;
74485;BMP280;62942;52.462;10.846;2023-05-15T01:52:38;100410;;;
74485;BMP280;62942;52.462;10.846;2023-05-15T01:53:38;100410;;;
74485;BMP280;62942;52.462;10.846;2023-05-15T01:54:48;100410;;;
74485;BMP280;62942;52.462;10.846;2023-05-15T01:55:58;100410;;;
74485;BMP280;62942;52.462;10.846;2023-05-15T01:56:58;100410;;;
74485;BMP280;62942;52.462;10.846;2023-05-15T01:57:59;100420;;;
74485;BMP280;62942;52.462;10.846;2023-05-15T01:59:08;100420;;;
74485;BMP280;62942;52.462;10.846;2023-05-15T02:00:09;100430;;;
74485;BMP280;62942;52.462;10.846;2023-05-15T02:01:18;100430;;;
74485;BMP280;62942;52.462;10.846;2023-05-15T02:02:18;100430;;;
74485;BMP280;62942;52.462;10.846;2023-05-15T02:03:28;100420;;;
74485;BMP280;62942;52.462;10.846;2023-05-15T02:04:28;100420;;;
74485;BMP280;62942;52.462;10.846;2023-05-15T02:05:38;100420;;;
74485;BMP280;62942;52.462;10.846;2023-05-15T02:06:48;100410;;;
74485;BMP280;62942;52.462;10.846;2023-05-15T02:07:59;100420;;;
74485;BMP280;62942;52.462;10.846;2023-05-15T02:09:00;100410;;;
74485;BMP280;62942;52.462;10.846;2023-05-15T02:10:08;100410;;;
74485;BMP280;62942;52.462;10.846;2023-05-15T02:11:18;100410;;;
74485;BMP280;62942;52.462;10.846;2023-05-15T02:12:28;100410;;;
74485;BMP280;62942;52.462;10.846;2023-05-15T02:13:28;100410;;;
74485;BMP280;62942;52.462;10.846;2023-05-15T02:14:28;100410;;;
74485;BMP280;62942;52.462;10.846;2023-05-15T02:15:38;100410;;;
74485;BMP280;62942;52.462;10.846;2023-05-15T02:16:38;100400;;;
74485;BMP280;62942;52.462;10.846;2023-05-15T02:17:38;100400;;;
74485;BMP280;62942;52.462;10.846;2023-05-15T02:18:48;100400;;;
74485;BMP280;62942;52.462;10.846;2023-05-15T02:19:58;100400;;;
74485;BMP280;62942;52.462;10.846;2023-05-15T02:20:58;100400;;;
74485;BMP280;62942;52.462;10.846;2023-05-15T02:21:58;100400;;;
74485;BMP280;62942;52.462;10.846;2023-05-15T02:23:08;100400;;;
74485;BMP280;62942;52.462;10.846;2023-05-15T02:24:18;100410;;;
74485;BMP280;62942;52.462;10.846;2023-05-15T02:25:18;100400;;;
74485;BMP280;62942;52.462;10.846;2023-05-15T02:26:22;100410;;;
74485;BMP280;62942;52.462;10.846;2023-05-15T02:27:31;100410;;;
74485;BMP280;62942;52.462;10.846;2023-05-15T02:28:40;100410;;;
74485;BMP280;62942;52.462;10.846;2023-05-15T02:29:51;100410;;;
74485;BMP280;62942;52.462;10.846;2023-05-15T02:30:52;100400;;;
74485;BMP280;62942;52.462;10.846;2023-05-15T02:32:01;100400;;;
74485;BMP280;62942;52.462;10.846;2023-05-15T02:33:02;100400;;;
74485;BMP280;62942;52.462;10.846;2023-05-15T02:34:11;100400;;;
74485;BMP280;62942;52.462;10.846;2023-05-15T02:35:11;100400;;;
74485;BMP280;62942;52.462;10.846;2023-05-15T02:36:08;100390;;;
74485;BMP280;62942;52.462;10.846;2023-05-15T02:37:09;100390;;;
74485;BMP280;62942;52.462;10.846;2023-05-15T02:38:20;100390;;;
74485;BMP280;62942;52.462;10.846;2023-05-15T02:39:18;100390;;;
74485;BMP280;62942;52.462;10.846;2023-05-15T02:40:18;100400;;;
74485;BMP280;62942;52.462;10.846;2023-05-15T02:41:28;100390;;;
74485;BMP280;62942;52.462;10.846;2023-05-15T02:42:28;100390;;;
74485;BMP280;62942;52.462;10.846;2023-05-15T02:43:38;100390;;;
74485;BMP280;62942;52.462;10.846;2023-05-15T02:44:48;100390;;;
74485;BMP280;62942;52.462;10.846;2023-05-15T02:45:58;100390;;;
74485;BMP280;62942;52.462;10.846;2023-05-15T02:47:09;100390;;;
74485;BMP280;62942;52.462;10.846;2023-05-15T02:48:08;100390;;;
74485;BMP280;62942;52.462;10.846;2023-05-15T02:49:18;100380;;;
74485;BMP280;62942;52.462;10.846;2023-05-15T02:50:18;100380;;;
74485;BMP280;62942;52.462;10.846;2023-05-15T02:51:28;100380;;;
74485;BMP280;62942;52.462;10.846;2023-05-15T02:52:28;100380;;;
74485;BMP280;62942;52.462;10.846;2023-05-15T02:53:28;100380;;;
74485;BMP280;62942;52.462;10.846;2023-05-15T02:54:38;100380;;;
74485;BMP280;62942;52.462;10.846;2023-05-15T02:55:38;100380;;;
74485;BMP280;62942;52.462;10.846;2023-05-15T02:56:38;100380;;;
74485;BMP280;62942;52.462;10.846;2023-05-15T02:57:48;100370;;;
74485;BMP280;62942;52.462;10.846;2023-05-15T02:58:48;100380;;;
74485;BMP280;62942;52.462;10.846;2023-05-15T02:59:48;100380;;;
74485;BMP280;62942;52.462;10.846;2023-05-15T03:00:48;100380;;;
74485;BMP280;62942;52.462;10.846;2023-05-15T03:01:48;100370;;;
74485;BMP280;62942;52.462;10.846;2023-05-15T03:02:58;100380;;;
74485;BMP280;62942;52.462;10.846;2023-05-15T03:04:08;100380;;;
74485;BMP280;62942;52.462;10.846;2023-05-15T03:05:08;100370;;;
74485;BMP280;62942;52.462;10.846;2023-05-15T03:06:08;100370;;;
74485;BMP280;62942;52.462;10.846;2023-05-15T03:07:18;100370;;;
74485;BMP280;62942;52.462;10.846;2023-05-15T03:08:18;100370;;;
74485;BMP280;62942;52.462;10.846;2023-05-15T03:09:28;100370;;;
74485;BMP280;62942;52.462;10.846;2023-05-15T03:10:38;100370;;;
74485;BMP280;62942;52.462;10.846;2023-05-15T03:11:48;100370;;;
74485;BMP280;62942;52.462;10.846;2023-05-15T03:12:58;100370;;;
74485;BMP280;62942;52.462;10.846;2023-05-15T03:14:08;100370;;;
74485;BMP280;62942;52.462;10.846;2023-05-15T03:15:08;100370;;;
74485;BMP280;62942;52.462;10.846;2023-05-15T03:16:18;100370;;;
74485;BMP280;62942;52.462;10.846;2023-05-15T03:17:18;100370;;;
74485;BMP280;62942;52.462;10.846;2023-05-15T03:18:28;100370;;;
74485;BMP280;62942;52.462;10.846;2023-05-15T03:19:28;100370;;;
74485;BMP280;62942;52.462;10.846;2023-05-15T03:20:38;100370;;;
74485;BMP280;62942;52.462;10.846;2023-05-15T03:21:48;100370;;;
74485;BMP280;62942;52.462;10.846;2023-05-15T03:22:58;100370;;;
74485;BMP280;62942;52.462;10.846;2023-05-15T03:23:58;100360;;;
74485;BMP280;62942;52.462;10.846;2023-05-15T03:25:09;100360;;;
74485;BMP280;62942;52.462;10.846;2023-05-15T03:26:18;100360;;;
74485;BMP280;62942;52.462;10.846;2023-05-15T03:27:18;100350;;;
74485;BMP280;62942;52.462;10.846;2023-05-15T03:28:18;100350;;;
74485;BMP280;62942;52.462;10.846;2023-05-15T03:29:18;100350;;;
74485;BMP280;62942;52.462;10.846;2023-05-15T03:30:28;100360;;;
74485;BMP280;62942;52.462;10.846;2023-05-15T03:31:38;100360;;;
74485;BMP280;62942;52.462;10.846;2023-05-15T03:32:48;100360;;;
74485;BMP280;62942;52.462;10.846;2023-05-15T03:33:58;100360;;;
74485;BMP280;62942;52.462;10.846;2023-05-15T03:35:08;100350;;;
74485;BMP280;62942;52.462;10.846;2023-05-15T03:36:08;100360;;;
74485;BMP280;62942;52.462;10.846;2023-05-15T03:37:19;100370;;;
74485;BMP280;62942;52.462;10.846;2023-05-15T03:38:28;100370;;;
74485;BMP280;62942;52.462;10.846;2023-05-15T03:39:28;100360;;;
74485;BMP280;62942;52.462;10.846;2023-05-15T03:40:38;100370;;;
74485;BMP280;62942;52.462;10.846;2023-05-15T03:41:48;100360;;;
74485;BMP280;62942;52.462;10.846;2023-05-15T03:42:58;100360;;;
74485;BMP280;62942;52.462;10.846;2023-05-15T03:44:08;100350;;;
74485;BMP280;62942;52.462;10.846;2023-05-15T03:45:18;100360;;;
74485;BMP280;62942;52.462;10.846;2023-05-15T03:46:18;100360;;;
74485;BMP280;62942;52.462;10.846;2023-05-15T03:47:18;100350;;;
74485;BMP280;62942;52.462;10.846;2023-05-15T03:48:28;100350;;;
74485;BMP280;62942;52.462;10.846;2023-05-15T03:49:28;100350;;;
74485;BMP280;62942;52.462;10.846;2023-05-15T03:50:38;100350;;;
74485;BMP280;62942;52.462;10.846;2023-05-15T03:51:48;100350;;;
74485;BMP280;62942;52.462;10.846;2023-05-15T03:52:48;100340;;;
74485;BMP280;62942;52.462;10.846;2023-05-15T03:53:48;100340;;;
74485;BMP280;62942;52.462;10.846;2023-05-15T03:54:58;100340;;;
74485;BMP280;62942;52.462;10.846;2023-05-15T03:55:58;100340;;;
74485;BMP280;62942;52.462;10.846;2023-05-15T03:57:08;100340;;;
74485;BMP280;62942;52.462;10.846;2023-05-15T03:58:08;100330;;;
74485;BMP280;62942;52.462;10.846;2023-05-15T03:59:08;100330;;;
74485;BMP280;62942;52.462;10.846;2023-05-15T04:00:18;100340;;;
74485;BMP280;62942;52.462;10.846;2023-05-15T04:01:28;100330;;;
74485;BMP280;62942;52.462;10.846;2023-05-15T04:02:38;100340;;;
74485;BMP280;62942;52.462;10.846;2023-05-15T04:03:38;100340;;;
74485;BMP280;62942;52.462;10.846;2023-05-15T04:04:48;100330;;;
74485;BMP280;62942;52.462;10.846;2023-05-15T04:05:48;100330;;;
74485;BMP280;62942;52.462;10.846;2023-05-15T04:06:58;100340;;;
74485;BMP280;62942;52.462;10.846;2023-05-15T04:07:58;100340;;;
74485;BMP280;62942;52.462;10.846;2023-05-15T04:09:08;100340;;;
74485;BMP280;62942;52.462;10.846;2023-05-15T04:10:18;100340;;;
74485;BMP280;62942;52.462;10.846;2023-05-15T04:11:28;100340;;;
74485;BMP280;62942;52.462;10.846;2023-05-15T04:12:28;100340;;;
74485;BMP280;62942;52.462;10.846;2023-05-15T04:13:38;100340;;;
74485;BMP280;62942;52.462;10.846;2023-05-15T04:14:38;100340;;;
74485;BMP280;62942;52.462;10.846;2023-05-15T04:15:48;100350;;;
74485;BMP280;62942;52.462;10.846;2023-05-15T04:16:48;100350;;;
74485;BMP280;62942;52.462;10.846;2023-05-15T04:17:58;100350;;;
74485;BMP280;62942;52.462;10.846;2023-05-15T04:18:58;100350;;;
74485;BMP280;62942;52.462;10.846;2023-05-15T04:20:08;100350;;;
74485;BMP280;62942;52.462;10.846;2023-05-15T04:21:18;100350;;;
74485;BMP280;62942;52.462;10.846;2023-05-15T04:22:18;100360;;;
74485;BMP280;62942;52.462;10.846;2023-05-15T04:23:28;100360;;;
74485;BMP280;62942;52.462;10.846;2023-05-15T04:24:38;100350;;;
74485;BMP280;62942;52.462;10.846;2023-05-15T04:25:48;100360;;;
74485;BMP280;62942;52.462;10.846;2023-05-15T04:26:58;100350;;;
74485;BMP280;62942;52.462;10.846;2023-05-15T04:27:58;100350;;;
74485;BMP280;62942;52.462;10.846;2023-05-15T04:29:08;100350;;;
74485;BMP280;62942;52.462;10.846;2023-05-15T04:30:18;100340;;;
74485;BMP280;62942;52.462;10.846;2023-05-15T04:31:28;100340;;;
74485;BMP280;62942;52.462;10.846;2023-05-15T04:32:38;100340;;;
74485;BMP280;62942;52.462;10.846;2023-05-15T04:33:48;100340;;;
74485;BMP280;62942;52.462;10.846;2023-05-15T04:34:58;100340;;;
74485;BMP280;62942;52.462;10.846;2023-05-15T04:36:08;100340;;;
74485;BMP280;62942;52.462;10.846;2023-05-15T04:37:09;100340;;;
74485;BMP280;62942;52.462;10.846;2023-05-15T04:38:18;100340;;;
74485;BMP280;62942;52.462;10.846;2023-05-15T04:39:28;100330;;;
74485;BMP280;62942;52.462;10.846;2023-05-15T04:40:28;100330;;;
74485;BMP280;62942;52.462;10.846;2023-05-15T04:41:38;100340;;;
74485;BMP280;62942;52.462;10.846;2023-05-15T04:42:38;100340;;;
74485;BMP280;62942;52.462;10.846;2023-05-15T04:43:38;100330;;;
74485;BMP280;62942;52.462;10.846;2023-05-15T04:44:48;100330;;;
74485;BMP280;62942;52.462;10.846;2023-05-15T04:45:58;100330;;;
74485;BMP280;62942;52.462;10.846;2023-05-15T04:47:08;100330;;;
74485;BMP280;62942;52.462;10.846;2023-05-15T04:48:08;100320;;;
74485;BMP280;62942;52.462;10.846;2023-05-15T04:49:08;100330;;;
74485;BMP280;62942;52.462;10.846;2023-05-15T04:50:18;100330;;;
74485;BMP280;62942;52.462;10.846;2023-05-15T04:51:18;100330;;;
74485;BMP280;62942;52.462;10.846;2023-05-15T04:52:18;100330;;;
74485;BMP280;62942;52.462;10.846;2023-05-15T04:53:28;100330;;;
74485;BMP280;62942;52.462;10.846;2023-05-15T04:54:38;100330;;;
74485;BMP280;62942;52.462;10.846;2023-05-15T04:55:38;100330;;;
74485;BMP280;62942;52.462;10.846;2023-05-15T04:56:48;100340;;;
74485;BMP280;62942;52.462;10.846;2023-05-15T04:57:48;100330;;;
74485;BMP280;62942;52.462;10.846;2023-05-15T04:58:58;100350;;;
74485;BMP280;62942;52.462;10.846;2023-05-15T05:00:08;100340;;;
74485;BMP280;62942;52.462;10.846;2023-05-15T05:01:08;100350;;;
74485;BMP280;62942;52.462;10.846;2023-05-15T05:02:08;100350;;;
74485;BMP280;62942;52.462;10.846;2023-05-15T05:03:18;100350;;;
74485;BMP280;62942;52.462;10.846;2023-05-15T05:04:28;100340;;;
74485;BMP280;62942;52.462;10.846;2023-05-15T05:05:38;100350;;;
74485;BMP280;62942;52.462;10.846;2023-05-15T05:06:48;100350;;;
74485;BMP280;62942;52.462;10.846;2023-05-15T05:07:58;100340;;;
74485;BMP280;62942;52.462;10.846;2023-05-15T05:08:58;100340;;;
74485;BMP280;62942;52.462;10.846;2023-05-15T05:10:08;100340;;;
74485;BMP280;62942;52.462;10.846;2023-05-15T05:11:08;100340;;;
74485;BMP280;62942;52.462;10.846;2023-05-15T05:12:18;100340;;;
74485;BMP280;62942;52.462;10.846;2023-05-15T05:13:28;100340;;;
74485;BMP280;62942;52.462;10.846;2023-05-15T05:14:38;100340;;;
74485;BMP280;62942;52.462;10.846;2023-05-15T05:15:38;100330;;;
74485;BMP280;62942;52.462;10.846;2023-05-15T05:16:48;100330;;;
74485;BMP280;62942;52.462;10.846;2023-05-15T05:17:58;100330;;;
74485;BMP280;62942;52.462;10.846;2023-05-15T05:19:08;100330;;;
74485;BMP280;62942;52.462;10.846;2023-05-15T05:20:18;100330;;;
74485;BMP280;62942;52.462;10.846;2023-05-15T05:21:28;100330;;;
74485;BMP280;62942;52.462;10.846;2023-05-15T05:22:29;100330;;;
74485;BMP280;62942;52.462;10.846;2023-05-15T05:23:38;100330;;;
74485;BMP280;62942;52.462;10.846;2023-05-15T05:24:48;100330;;;
74485;BMP280;62942;52.462;10.846;2023-05-15T05:25:58;100330;;;
74485;BMP280;62942;52.462;10.846;2023-05-15T05:27:08;100330;;;
74485;BMP280;62942;52.462;10.846;2023-05-15T05:28:18;100330;;;
74485;BMP280;62942;52.462;10.846;2023-05-15T05:29:18;100330;;;
74485;BMP280;62942;52.462;10.846;2023-05-15T05:30:28;100330;;;
74485;BMP280;62942;52.462;10.846;2023-05-15T05:31:38;100330;;;
74485;BMP280;62942;52.462;10.846;2023-05-15T05:32:48;100330;;;
74485;BMP280;62942;52.462;10.846;2023-05-15T05:33:58;100320;;;
74485;BMP280;62942;52.462;10.846;2023-05-15T05:35:08;100320;;;
74485;BMP280;62942;52.462;10.846;2023-05-15T05:36:08;100320;;;
74485;BMP280;62942;52.462;10.846;2023-05-15T05:37:18;100320;;;
74485;BMP280;62942;52.462;10.846;2023-05-15T05:38:28;100320;;;
74485;BMP280;62942;52.462;10.846;2023-05-15T05:39:28;100320;;;
74485;BMP280;62942;52.462;10.846;2023-05-15T05:40:38;100320;;;
74485;BMP280;62942;52.462;10.846;2023-05-15T05:41:48;100320;;;
74485;BMP280;62942;52.462;10.846;2023-05-15T05:42:48;100320;;;
74485;BMP280;62942;52.462;10.846;2023-05-15T05:43:58;100320;;;
74485;BMP280;62942;52.462;10.846;2023-05-15T05:45:08;100320;;;
74485;BMP280;62942;52.462;10.846;2023-05-15T05:46:18;100320;;;
74485;BMP280;62942;52.462;10.846;2023-05-15T05:47:28;100320;;;
74485;BMP280;62942;52.462;10.846;2023-05-15T05:48:38;100320;;;
74485;BMP280;62942;52.462;10.846;2023-05-15T05:49:48;100320;;;
74485;BMP280;62942;52.462;10.846;2023-05-15T05:50:48;100330;;;
74485;BMP280;62942;52.462;10.846;2023-05-15T05:52:03;100320;;;
74485;BMP280;62942;52.462;10.846;2023-05-15T05:53:08;100320;;;
74485;BMP280;62942;52.462;10.846;2023-05-15T05:54:18;100310;;;
74485;BMP280;62942;52.462;10.846;2023-05-15T05:55:28;100310;;;
74485;BMP280;62942;52.462;10.846;2023-05-15T05:56:38;100320;;;
74485;BMP280;62942;52.462;10.846;2023-05-15T05:57:48;100320;;;
74485;BMP280;62942;52.462;10.846;2023-05-15T05:58:48;100320;;;
74485;BMP280;62942;52.462;10.846;2023-05-15T05:59:58;100310;;;
74485;BMP280;62942;52.462;10.846;2023-05-15T06:01:08;100310;;;
74485;BMP280;62942;52.462;10.846;2023-05-15T06:02:08;100310;;;
74485;BMP280;62942;52.462;10.846;2023-05-15T06:03:08;100310;;;
74485;BMP280;62942;52.462;10.846;2023-05-15T06:04:18;100310;;;
74485;BMP280;62942;52.462;10.846;2023-05-15T06:05:28;100310;;;
74485;BMP280;62942;52.462;10.846;2023-05-15T06:06:28;100320;;;
74485;BMP280;62942;52.462;10.846;2023-05-15T06:07:38;100320;;;
74485;BMP280;62942;52.462;10.846;2023-05-15T06:08:38;100310;;;
74485;BMP280;62942;52.462;10.846;2023-05-15T06:09:48;100320;;;
74485;BMP280;62942;52.462;10.846;2023-05-15T06:10:58;100310;;;
74485;BMP280;62942;52.462;10.846;2023-05-15T06:11:58;100300;;;
74485;BMP280;62942;52.462;10.846;2023-05-15T06:12:58;100300;;;
74485;BMP280;62942;52.462;10.846;2023-05-15T06:14:08;100300;;;
74485;BMP280;62942;52.462;10.846;2023-05-15T06:15:18;100300;;;
74485;BMP280;62942;52.462;10.846;2023-05-15T06:16:18;100300;;;
74485;BMP280;62942;52.462;10.846;2023-05-15T06:17:18;100300;;;
74485;BMP280;62942;52.462;10.846;2023-05-15T06:18:28;100300;;;
74485;BMP280;62942;52.462;10.846;2023-05-15T06:19:28;100290;;;
74485;BMP280;62942;52.462;10.846;2023-05-15T06:20:38;100300;;;
74485;BMP280;62942;52.462;10.846;2023-05-15T06:21:48;100300;;;
74485;BMP280;62942;52.462;10.846;2023-05-15T06:22:58;100290;;;
74485;BMP280;62942;52.462;10.846;2023-05-15T06:23:58;100290;;;
74485;BMP280;62942;52.462;10.846;2023-05-15T06:24:58;100300;;;
74485;BMP280;62942;52.462;10.846;2023-05-15T06:26:08;100290;;;
74485;BMP280;62942;52.462;10.846;2023-05-15T06:27:18;100290;;;
74485;BMP280;62942;52.462;10.846;2023-05-15T06:28:28;100290;;;
74485;BMP280;62942;52.462;10.846;2023-05-15T06:29:28;100280;;;
74485;BMP280;62942;52.462;10.846;2023-05-15T06:30:38;100290;;;
74485;BMP280;62942;52.462;10.846;2023-05-15T06:31:48;100290;;;
74485;BMP280;62942;52.462;10.846;2023-05-15T06:32:58;100290;;;
74485;BMP280;62942;52.462;10.846;2023-05-15T06:33:58;100300;;;
74485;BMP280;62942;52.462;10.846;2023-05-15T06:35:08;100300;;;
74485;BMP280;62942;52.462;10.846;2023-05-15T06:36:08;100300;;;
74485;BMP280;62942;52.462;10.846;2023-05-15T06:37:08;100300;;;
74485;BMP280;62942;52.462;10.846;2023-05-15T06:38:18;100290;;;
74485;BMP280;62942;52.462;10.846;2023-05-15T06:39:18;100300;;;
74485;BMP280;62942;52.462;10.846;2023-05-15T06:40:28;100300;;;
74485;BMP280;62942;52.462;10.846;2023-05-15T06:41:28;100300;;;
74485;BMP280;62942;52.462;10.846;2023-05-15T06:42:28;100290;;;
74485;BMP280;62942;52.462;10.846;2023-05-15T06:43:38;100300;;;
74485;BMP280;62942;52.462;10.846;2023-05-15T06:44:48;100300;;;
74485;BMP280;62942;52.462;10.846;2023-05-15T06:45:48;100310;;;
74485;BMP280;62942;52.462;10.846;2023-05-15T06:46:48;100300;;;
74485;BMP280;62942;52.462;10.846;2023-05-15T06:47:48;100300;;;
74485;BMP280;62942;52.462;10.846;2023-05-15T06:48:58;100300;;;
74485;BMP280;62942;52.462;10.846;2023-05-15T06:50:08;100300;;;
74485;BMP280;62942;52.462;10.846;2023-05-15T06:51:18;100300;;;
74485;BMP280;62942;52.462;10.846;2023-05-15T06:52:19;100310;;;
74485;BMP280;62942;52.462;10.846;2023-05-15T06:53:28;100310;;;
74485;BMP280;62942;52.462;10.846;2023-05-15T06:54:38;100310;;;
74485;BMP280;62942;52.462;10.846;2023-05-15T06:55:38;100310;;;
74485;BMP280;62942;52.462;10.846;2023-05-15T06:56:48;100310;;;